Time;durP1;ratioP1;P1;durP2;ratioP2;P2;SDS_P1;SDS_P2;PMS_P1;PMS_P2;Temp;Humidity;BMP_temperature;BMP_pressure;BME280_temperature;BME280_humidity;BME280_pressure;Samples;Min_cycle;Max_cycle;Signal;HPM_P1;HPM_P2
2022/04/30 00:00:42;;;;;;;13.63;8.48;;;4.10;99.90;;;;;;5042693;28;20075;-66
2022/04/30 00:03:09;;;;;;;17.42;8.68;;;4.10;99.90;;;;;;5039138;28;20048;-65
2022/04/30 00:05:35;;;;;;;16.02;8.07;;;4.10;99.90;;;;;;5037999;28;20514;-65
2022/04/30 00:08:03;;;;;;;15.63;7.72;;;4.10;99.90;;;;;;5042024;28;20077;-65
2022/04/30 00:10:30;;;;;;;12.63;7.50;;;4.10;99.90;;;;;;5058665;28;20048;-65
2022/04/30 00:12:56;;;;;;;13.27;7.57;;;4.00;99.90;;;;;;5041636;28;20444;-65
2022/04/30 00:15:22;;;;;;;14.40;7.97;;;4.10;99.90;;;;;;5043288;28;20045;-66
2022/04/30 00:17:50;;;;;;;13.13;7.38;;;4.10;99.90;;;;;;5042476;28;20098;-65
2022/04/30 00:20:15;;;;;;;16.05;8.10;;;4.00;99.90;;;;;;5036780;28;20049;-65
2022/04/30 00:22:41;;;;;;;17.08;7.97;;;4.10;99.90;;;;;;5037925;28;20642;-66
2022/04/30 00:25:08;;;;;;;17.60;8.02;;;4.20;99.90;;;;;;5037221;28;20302;-65
2022/04/30 00:27:34;;;;;;;12.13;7.43;;;4.00;99.90;;;;;;5034392;28;20465;-65
2022/04/30 00:30:00;;;;;;;12.48;7.20;;;4.00;99.90;;;;;;5034213;28;20056;-66
2022/04/30 00:32:26;;;;;;;14.25;8.20;;;4.00;99.90;;;;;;5042285;28;20045;-65
2022/04/30 00:34:52;;;;;;;14.88;7.80;;;4.00;99.90;;;;;;5043667;28;20041;-65
2022/04/30 00:37:17;;;;;;;13.93;7.45;;;4.00;99.90;;;;;;5047003;28;20033;-65
2022/04/30 00:39:43;;;;;;;13.77;7.13;;;4.00;99.90;;;;;;5041605;28;20407;-65
2022/04/30 00:42:12;;;;;;;14.10;8.07;;;4.00;99.90;;;;;;5048369;28;20080;-65
2022/04/30 00:44:38;;;;;;;15.60;8.10;;;4.10;99.90;;;;;;5045500;28;20132;-65
2022/04/30 00:47:04;;;;;;;13.10;7.93;;;4.10;99.90;;;;;;5046563;28;20123;-66
2022/04/30 00:49:29;;;;;;;15.00;7.65;;;4.10;99.90;;;;;;5045721;28;20535;-65
2022/04/30 00:52:01;;;;;;;14.63;6.78;;;4.10;99.90;;;;;;5043896;28;20041;-65
2022/04/30 00:54:32;;;;;;;14.25;7.45;;;4.00;99.90;;;;;;5039777;28;20048;-65
2022/04/30 00:57:05;;;;;;;14.10;7.10;;;4.10;99.90;;;;;;5038442;28;20049;-65
2022/04/30 00:59:32;;;;;;;14.65;7.72;;;4.00;99.90;;;;;;5034008;28;20037;-66
2022/04/30 01:01:59;;;;;;;13.57;7.35;;;4.00;99.90;;;;;;5029965;28;20086;-66
2022/04/30 01:04:26;;;;;;;14.25;7.03;;;4.00;99.90;;;;;;5019702;28;20147;-66
2022/04/30 01:06:56;;;;;;;15.65;7.82;;;4.00;99.90;;;;;;5023320;28;20091;-65
2022/04/30 01:09:25;;;;;;;12.88;7.03;;;4.00;99.90;;;;;;5023480;28;20145;-65
2022/04/30 01:12:01;;;;;;;14.75;7.40;;;4.00;99.90;;;;;;5035470;28;20045;-66
2022/04/30 01:14:29;;;;;;;13.77;7.55;;;4.00;99.90;;;;;;5036978;28;20820;-66
2022/04/30 01:16:59;;;;;;;13.07;6.85;;;4.00;99.90;;;;;;5031181;28;20157;-66
2022/04/30 01:19:27;;;;;;;15.02;8.43;;;4.00;99.90;;;;;;5031424;28;20413;-66
2022/04/30 01:21:58;;;;;;;13.93;6.95;;;4.00;99.90;;;;;;5031689;28;20140;-65
2022/04/30 01:24:30;;;;;;;14.93;7.32;;;4.00;99.90;;;;;;5032591;28;20044;-65
2022/04/30 01:26:58;;;;;;;13.60;6.70;;;4.00;99.90;;;;;;5035491;28;20479;-65
2022/04/30 01:29:25;;;;;;;15.77;7.32;;;3.80;99.90;;;;;;5039030;28;20056;-66
2022/04/30 01:37:25;;;;;;;17.17;7.53;;;3.90;99.90;;;;;;5043389;28;20480;-65
2022/04/30 01:40:11;;;;;;;15.20;6.70;;;4.10;99.90;;;;;;5044631;28;20048;-65
2022/04/30 01:42:46;;;;;;;12.88;6.85;;;4.20;99.90;;;;;;5042858;28;20038;-65
2022/04/30 01:45:13;;;;;;;12.77;7.22;;;3.90;99.90;;;;;;5037477;28;20052;-65
2022/04/30 01:47:40;;;;;;;15.30;7.25;;;3.90;99.90;;;;;;5040646;28;20079;-65
2022/04/30 01:50:08;;;;;;;13.75;7.07;;;3.90;99.90;;;;;;5042447;28;20073;-66
2022/04/30 01:52:34;;;;;;;15.07;7.45;;;3.80;99.90;;;;;;5038688;28;20049;-65
2022/04/30 01:55:00;;;;;;;17.10;7.40;;;3.80;99.90;;;;;;5040653;28;20041;-65
2022/04/30 01:57:26;;;;;;;17.63;7.50;;;3.80;99.90;;;;;;5034115;28;20048;-65
2022/04/30 02:00:13;;;;;;;11.60;7.32;;;3.80;99.90;;;;;;5036150;28;20065;-65
2022/04/30 02:02:45;;;;;;;12.60;7.40;;;3.80;99.90;;;;;;5024446;28;20052;-65
2022/04/30 02:05:13;;;;;;;14.90;7.10;;;3.80;99.90;;;;;;5041020;28;20045;-65
2022/04/30 02:07:43;;;;;;;14.10;7.35;;;3.80;99.90;;;;;;5041064;28;20095;-65
2022/04/30 02:10:11;;;;;;;14.48;7.32;;;3.80;99.90;;;;;;5043100;28;20049;-65
2022/04/30 02:12:38;;;;;;;12.85;6.38;;;3.80;99.90;;;;;;5032657;28;20091;-66
2022/04/30 02:15:04;;;;;;;15.50;6.55;;;3.70;99.90;;;;;;5038519;28;20041;-65
2022/04/30 02:17:35;;;;;;;12.80;7.38;;;3.70;99.90;;;;;;5039862;28;20045;-66
2022/04/30 02:22:47;;;;;;;11.13;6.68;;;3.70;99.90;;;;;;5041988;28;20063;-65
2022/04/30 02:25:14;;;;;;;12.45;6.68;;;3.70;99.90;;;;;;5043044;28;20043;-65
2022/04/30 02:27:45;;;;;;;13.63;7.20;;;3.70;99.90;;;;;;5037535;28;20382;-66
2022/04/30 02:30:19;;;;;;;15.10;7.25;;;3.70;99.90;;;;;;5047929;28;20037;-65
2022/04/30 02:32:48;;;;;;;11.35;6.43;;;3.70;99.90;;;;;;5040512;28;20037;-65
2022/04/30 02:35:22;;;;;;;14.63;7.00;;;3.70;99.90;;;;;;5036555;28;20045;-66
2022/04/30 02:37:50;;;;;;;13.23;6.93;;;3.70;99.90;;;;;;5041796;28;20045;-65
2022/04/30 02:40:17;;;;;;;16.17;7.18;;;3.70;99.90;;;;;;5042778;28;20044;-66
2022/04/30 02:42:44;;;;;;;14.13;6.78;;;3.70;99.90;;;;;;5044001;28;20041;-66
2022/04/30 02:45:10;;;;;;;15.73;7.00;;;3.70;99.90;;;;;;5035276;28;20077;-65
2022/04/30 02:47:41;;;;;;;14.63;7.00;;;3.70;99.90;;;;;;5041482;28;20108;-65
2022/04/30 02:50:08;;;;;;;10.73;6.00;;;3.70;99.90;;;;;;5040625;28;20574;-66
2022/04/30 02:52:35;;;;;;;12.40;7.25;;;3.70;99.90;;;;;;5038364;28;20669;-67
2022/04/30 02:55:00;;;;;;;11.15;6.30;;;3.70;99.90;;;;;;5042182;28;20461;-65
2022/04/30 02:57:39;;;;;;;11.75;7.20;;;3.70;99.90;;;;;;5043844;28;20033;-66
2022/04/30 03:00:06;;;;;;;14.05;7.13;;;3.70;99.90;;;;;;5006426;28;20141;-65
2022/04/30 03:02:32;;;;;;;15.38;7.43;;;3.70;99.90;;;;;;5031859;28;20038;-65
2022/04/30 03:04:57;;;;;;;15.63;7.05;;;3.70;99.90;;;;;;5029315;28;20050;-65
2022/04/30 03:07:24;;;;;;;12.60;7.45;;;4.30;99.90;;;;;;5031830;28;20063;-65
2022/04/30 03:09:50;;;;;;;13.77;7.40;;;3.70;99.90;;;;;;5030092;28;20080;-65
2022/04/30 03:12:17;;;;;;;12.77;7.15;;;3.70;99.90;;;;;;5034778;28;20553;-65
2022/04/30 03:14:43;;;;;;;15.15;6.90;;;3.70;99.90;;;;;;5031852;28;21820;-65
2022/04/30 03:22:39;;;;;;;15.20;7.07;;;3.80;99.90;;;;;;5043353;28;20471;-65
2022/04/30 03:25:05;;;;;;;11.95;6.30;;;3.80;99.90;;;;;;5041197;28;20116;-65
2022/04/30 03:27:32;;;;;;;12.23;6.35;;;3.80;99.90;;;;;;5036880;28;20132;-65
2022/04/30 03:29:57;;;;;;;11.75;7.00;;;3.80;99.90;;;;;;5034182;28;20486;-65
2022/04/30 03:32:24;;;;;;;14.07;7.00;;;3.80;99.90;;;;;;5029380;28;20047;-65
2022/04/30 03:34:51;;;;;;;12.13;6.85;;;3.80;99.90;;;;;;5033868;28;20041;-65
2022/04/30 03:37:17;;;;;;;16.35;7.32;;;3.80;99.90;;;;;;5034003;28;20485;-65
2022/04/30 03:39:43;;;;;;;12.32;6.28;;;3.80;99.90;;;;;;5038660;28;20037;-65
2022/04/30 03:42:09;;;;;;;11.90;6.85;;;3.90;99.90;;;;;;5035550;28;20041;-65
2022/04/30 03:44:35;;;;;;;12.32;6.53;;;3.90;99.90;;;;;;5036278;28;20052;-65
2022/04/30 03:47:00;;;;;;;17.55;7.85;;;3.90;99.90;;;;;;5039273;28;20038;-64
2022/04/30 03:49:26;;;;;;;12.77;7.22;;;3.90;99.90;;;;;;5044663;28;20432;-64
2022/04/30 03:51:54;;;;;;;13.70;7.43;;;3.90;99.90;;;;;;5042450;28;20506;-65
2022/04/30 03:54:20;;;;;;;15.32;8.02;;;3.90;99.90;;;;;;5039517;28;20564;-64
2022/04/30 03:56:46;;;;;;;11.40;7.00;;;4.00;99.90;;;;;;5044651;28;20124;-64
2022/04/30 03:59:12;;;;;;;12.80;7.88;;;4.00;99.90;;;;;;5039055;28;20087;-65
2022/04/30 04:01:38;;;;;;;12.23;6.63;;;4.10;99.90;;;;;;5038304;28;20037;-64
2022/04/30 04:04:03;;;;;;;15.88;8.02;;;4.10;99.90;;;;;;5043870;28;20041;-64
2022/04/30 04:06:31;;;;;;;15.82;7.50;;;4.10;99.90;;;;;;5036568;28;20072;-64
2022/04/30 04:08:59;;;;;;;13.23;6.90;;;4.20;99.90;;;;;;5037367;28;20045;-64
2022/04/30 04:11:26;;;;;;;15.55;7.13;;;4.20;99.90;;;;;;5033956;28;20765;-64
2022/04/30 04:19:25;;;;;;;12.05;7.68;;;4.20;99.90;;;;;;4994933;28;20059;-64
2022/04/30 04:21:51;;;;;;;16.65;8.15;;;4.20;99.90;;;;;;5036689;28;20394;-65
2022/04/30 04:27:02;;;;;;;13.68;7.78;;;4.30;99.90;;;;;;5035142;28;20099;-64
2022/04/30 04:29:28;;;;;;;13.90;8.02;;;4.30;99.90;;;;;;5040160;28;20111;-65
2022/04/30 04:31:53;;;;;;;14.85;8.52;;;4.40;99.90;;;;;;5046524;28;20049;-65
2022/04/30 04:34:19;;;;;;;14.18;8.38;;;4.50;99.90;;;;;;5042450;28;20421;-65
2022/04/30 04:36:45;;;;;;;15.82;7.60;;;4.50;99.90;;;;;;5044625;28;20045;-65
2022/04/30 04:39:12;;;;;;;16.00;9.20;;;4.50;99.90;;;;;;5045510;28;20098;-65
2022/04/30 04:41:39;;;;;;;14.07;9.38;;;4.60;99.90;;;;;;5045677;28;20440;-65
2022/04/30 04:44:05;;;;;;;16.90;9.55;;;4.70;99.90;;;;;;5042057;28;20061;-65
2022/04/30 04:46:31;;;;;;;15.68;9.35;;;4.60;99.90;;;;;;5047942;28;20490;-65
2022/04/30 04:48:57;;;;;;;14.00;8.90;;;4.80;99.90;;;;;;5040278;28;20049;-65
2022/04/30 04:51:23;;;;;;;17.15;8.63;;;4.80;99.90;;;;;;5045408;28;20126;-65
2022/04/30 04:53:49;;;;;;;17.75;9.00;;;4.80;99.90;;;;;;5043677;28;20450;-65
2022/04/30 04:56:14;;;;;;;19.85;11.10;;;4.90;99.90;;;;;;5041433;28;20406;-65
2022/04/30 04:58:40;;;;;;;16.17;9.05;;;5.00;99.90;;;;;;5043844;28;20063;-65
2022/04/30 05:01:06;;;;;;;14.52;9.63;;;5.00;99.90;;;;;;5040006;28;20053;-65
2022/04/30 05:03:31;;;;;;;18.98;9.65;;;5.10;99.90;;;;;;5039197;28;20131;-65
2022/04/30 05:05:57;;;;;;;19.35;10.32;;;5.10;99.90;;;;;;5043287;28;20049;-65
2022/04/30 05:08:23;;;;;;;14.77;9.35;;;5.20;99.90;;;;;;5043826;28;20060;-64
2022/04/30 05:10:49;;;;;;;15.80;10.40;;;5.20;99.90;;;;;;5042693;28;20037;-65
2022/04/30 05:13:14;;;;;;;14.65;9.25;;;5.40;99.90;;;;;;5041112;28;20092;-66
2022/04/30 05:15:40;;;;;;;15.02;9.82;;;5.30;99.90;;;;;;5036228;28;20072;-64
2022/04/30 05:18:07;;;;;;;16.27;10.23;;;5.40;99.90;;;;;;5039135;28;20037;-64
2022/04/30 05:20:33;;;;;;;19.58;10.95;;;5.50;99.90;;;;;;5043073;28;20500;-64
2022/04/30 05:22:59;;;;;;;21.92;10.52;;;5.60;99.90;;;;;;5042310;28;20152;-65
2022/04/30 05:25:24;;;;;;;20.02;10.15;;;5.80;99.90;;;;;;5043845;28;20041;-65
2022/04/30 05:27:50;;;;;;;17.80;10.07;;;6.10;99.90;;;;;;5048091;28;20114;-65
2022/04/30 05:30:16;;;;;;;19.83;11.38;;;5.80;99.90;;;;;;5049635;28;20136;-65
2022/04/30 05:32:41;;;;;;;19.33;11.27;;;5.80;99.90;;;;;;5045428;28;20484;-66
2022/04/30 05:35:08;;;;;;;16.63;9.85;;;5.90;99.90;;;;;;5044746;28;20060;-66
2022/04/30 05:37:33;;;;;;;16.25;10.32;;;6.00;99.90;;;;;;5048024;28;20036;-65
2022/04/30 05:39:59;;;;;;;17.85;10.40;;;6.10;99.90;;;;;;5047435;28;20408;-63
2022/04/30 05:42:24;;;;;;;17.33;10.10;;;6.20;99.90;;;;;;5048576;28;20379;-63
2022/04/30 05:44:50;;;;;;;23.20;10.80;;;6.30;99.90;;;;;;5046841;28;20413;-63
2022/04/30 05:47:18;;;;;;;15.52;10.27;;;6.60;99.90;;;;;;5029575;28;20041;-63
2022/04/30 05:49:44;;;;;;;21.25;9.77;;;6.80;99.90;;;;;;5030613;28;20053;-63
2022/04/30 05:52:11;;;;;;;20.33;10.35;;;6.60;99.90;;;;;;5047576;28;20049;-63
2022/04/30 05:54:37;;;;;;;15.90;9.10;;;7.50;99.90;;;;;;5044895;28;20052;-63
2022/04/30 05:57:04;;;;;;;15.68;8.65;;;7.90;99.90;;;;;;5046548;28;20055;-63
2022/04/30 05:59:29;;;;;;;13.52;9.60;;;8.20;99.90;;;;;;5043924;28;20045;-63
2022/04/30 06:01:55;;;;;;;15.95;9.68;;;8.40;99.90;;;;;;5045994;28;20098;-65
2022/04/30 06:04:21;;;;;;;17.17;9.07;;;8.50;99.90;;;;;;5045680;28;20468;-65
2022/04/30 06:06:47;;;;;;;14.38;9.32;;;8.70;99.90;;;;;;5029365;28;20092;-65
2022/04/30 06:09:13;;;;;;;18.42;9.20;;;8.80;99.90;;;;;;5029074;28;20425;-65
2022/04/30 06:11:39;;;;;;;14.95;8.75;;;8.80;99.90;;;;;;5034077;28;20391;-65
2022/04/30 06:14:05;;;;;;;18.23;9.18;;;8.80;99.90;;;;;;5021257;28;20127;-66
2022/04/30 06:16:31;;;;;;;17.95;8.82;;;9.00;99.90;;;;;;5027026;28;20075;-67
2022/04/30 06:18:56;;;;;;;12.45;8.00;;;9.10;99.90;;;;;;5026164;28;20049;-66
2022/04/30 06:21:23;;;;;;;11.43;7.32;;;9.20;99.90;;;;;;5010643;28;20053;-65
2022/04/30 06:23:52;;;;;;;17.00;8.65;;;9.20;99.90;;;;;;5005115;28;20289;-65
2022/04/30 06:26:18;;;;;;;15.25;7.95;;;9.20;99.90;;;;;;5023484;28;20037;-65
2022/04/30 06:28:44;;;;;;;22.33;7.30;;;9.30;99.90;;;;;;5022376;28;20063;-65
2022/04/30 06:31:09;;;;;;;16.05;8.65;;;9.10;99.90;;;;;;4987318;28;20049;-65
2022/04/30 06:33:35;;;;;;;13.75;8.05;;;9.00;99.90;;;;;;5009553;28;20041;-65
2022/04/30 06:36:01;;;;;;;15.25;8.00;;;8.90;99.90;;;;;;5002811;28;20041;-65
2022/04/30 06:38:27;;;;;;;16.23;8.40;;;8.90;99.90;;;;;;5025363;28;20529;-65
2022/04/30 06:40:52;;;;;;;17.60;7.65;;;8.90;99.90;;;;;;5024325;28;20049;-65
2022/04/30 06:43:18;;;;;;;14.18;7.68;;;8.90;99.90;;;;;;5018815;28;20037;-66
2022/04/30 06:45:43;;;;;;;14.70;7.97;;;8.90;99.90;;;;;;5027407;28;20564;-65
2022/04/30 06:48:10;;;;;;;17.85;8.98;;;9.00;99.90;;;;;;5021531;28;20041;-65
2022/04/30 06:50:36;;;;;;;15.23;7.88;;;8.90;99.90;;;;;;5011570;28;20449;-66
2022/04/30 06:58:40;;;;;;;14.68;8.02;;;8.90;99.90;;;;;;5022020;28;20134;-65
2022/04/30 07:01:26;;;;;;;20.08;7.75;;;8.60;99.90;;;;;;5019648;28;20045;-66
2022/04/30 07:03:55;;;;;;;20.58;8.13;;;9.10;99.90;;;;;;5006441;28;20045;-65
2022/04/30 07:06:21;;;;;;;16.90;7.25;;;9.10;99.90;;;;;;5031562;28;20049;-66
2022/04/30 07:08:47;;;;;;;16.63;7.40;;;9.10;99.90;;;;;;5038073;28;20052;-66
2022/04/30 07:11:13;;;;;;;13.63;7.15;;;9.10;99.90;;;;;;5026881;28;20060;-65
2022/04/30 07:13:38;;;;;;;12.63;6.63;;;9.10;99.90;;;;;;5034282;28;21278;-65
2022/04/30 07:16:04;;;;;;;17.95;7.55;;;9.10;99.90;;;;;;5033851;28;20042;-65
2022/04/30 07:18:30;;;;;;;11.77;6.60;;;9.20;99.90;;;;;;5029692;28;20115;-66
2022/04/30 07:20:56;;;;;;;16.00;7.57;;;9.20;99.90;;;;;;5031593;28;20094;-65
2022/04/30 07:23:22;;;;;;;12.55;6.57;;;9.20;99.90;;;;;;5032382;28;20406;-66
2022/04/30 07:25:48;;;;;;;14.50;6.47;;;9.30;99.90;;;;;;5029706;28;20272;-66
2022/04/30 07:28:14;;;;;;;14.75;6.25;;;9.30;99.90;;;;;;5035319;28;21094;-66
2022/04/30 07:30:40;;;;;;;12.88;6.18;;;9.30;99.90;;;;;;5029775;28;20090;-65
2022/04/30 07:33:06;;;;;;;12.63;5.93;;;9.40;99.90;;;;;;5042209;28;20041;-66
2022/04/30 07:35:32;;;;;;;12.77;6.57;;;9.50;99.90;;;;;;5038536;28;20570;-66
2022/04/30 07:37:57;;;;;;;10.73;5.82;;;9.70;99.90;;;;;;5034756;28;20042;-66
2022/04/30 07:40:23;;;;;;;9.63;4.78;;;9.50;99.90;;;;;;5032560;28;20046;-66
2022/04/30 07:42:48;;;;;;;8.45;5.03;;;9.50;99.90;;;;;;5039629;28;20048;-66
2022/04/30 07:45:14;;;;;;;10.25;5.10;;;9.60;99.90;;;;;;5032172;28;21125;-66
2022/04/30 07:47:40;;;;;;;8.75;4.40;;;9.60;99.90;;;;;;5036749;28;20088;-66
2022/04/30 07:50:06;;;;;;;9.27;4.88;;;9.70;99.90;;;;;;5036191;28;20033;-66
2022/04/30 07:52:32;;;;;;;9.57;4.18;;;9.70;99.90;;;;;;5019706;28;20397;-66
2022/04/30 07:54:59;;;;;;;10.90;4.40;;;9.90;99.90;;;;;;5042117;28;20076;-66
2022/04/30 07:57:28;;;;;;;8.75;3.88;;;9.90;99.90;;;;;;5040889;28;20056;-66
2022/04/30 07:59:53;;;;;;;9.05;3.83;;;10.00;99.90;;;;;;5042873;28;20049;-66
2022/04/30 08:02:19;;;;;;;7.13;3.92;;;10.00;99.90;;;;;;5046810;28;20417;-66
2022/04/30 08:04:45;;;;;;;10.68;4.97;;;10.20;99.90;;;;;;5043753;28;20044;-66
2022/04/30 08:07:11;;;;;;;10.57;4.63;;;10.30;99.90;;;;;;5024750;28;20144;-65
2022/04/30 08:09:37;;;;;;;10.15;4.82;;;10.40;99.90;;;;;;5043289;28;20530;-66
2022/04/30 08:12:03;;;;;;;10.05;4.00;;;10.50;99.90;;;;;;5036831;28;20042;-66
2022/04/30 08:14:28;;;;;;;9.95;4.35;;;10.70;99.90;;;;;;5037941;28;20516;-67
2022/04/30 08:16:54;;;;;;;9.93;4.63;;;10.80;99.90;;;;;;5038864;28;20081;-67
2022/04/30 08:19:20;;;;;;;10.35;4.65;;;10.80;99.90;;;;;;5038722;28;20041;-66
2022/04/30 08:21:48;;;;;;;10.52;4.75;;;10.80;99.90;;;;;;5040337;28;20095;-66
2022/04/30 08:24:15;;;;;;;10.13;4.28;;;10.90;99.90;;;;;;5040693;28;20057;-66
2022/04/30 08:26:40;;;;;;;7.88;4.15;;;11.00;99.90;;;;;;5040068;28;20041;-66
2022/04/30 08:29:06;;;;;;;10.38;4.50;;;11.10;99.90;;;;;;5039689;28;20041;-66
2022/04/30 08:31:33;;;;;;;8.80;3.90;;;11.10;99.90;;;;;;5041298;28;20076;-66
2022/04/30 08:33:58;;;;;;;10.30;4.00;;;11.30;99.90;;;;;;5040170;28;20520;-66
2022/04/30 08:36:24;;;;;;;8.55;4.90;;;11.60;99.90;;;;;;5030758;28;20052;-66
2022/04/30 08:38:50;;;;;;;9.40;4.05;;;11.90;99.90;;;;;;5033929;28;20048;-65
2022/04/30 08:41:16;;;;;;;9.68;3.83;;;12.20;99.90;;;;;;5026660;28;20041;-65
2022/04/30 08:43:47;;;;;;;6.80;3.38;;;12.60;99.90;;;;;;5027672;28;20114;-65
2022/04/30 08:46:13;;;;;;;12.85;3.92;;;13.30;99.90;;;;;;5028838;28;20052;-65
2022/04/30 08:48:40;;;;;;;6.55;3.55;;;13.60;99.90;;;;;;5028467;28;20068;-65
2022/04/30 08:51:05;;;;;;;7.20;4.03;;;13.80;99.90;;;;;;5032478;28;20591;-65
2022/04/30 08:53:31;;;;;;;24.45;4.82;;;13.70;99.90;;;;;;5031251;28;20040;-66
2022/04/30 08:55:56;;;;;;;8.75;4.50;;;13.60;99.90;;;;;;5019826;28;20048;-66
2022/04/30 08:58:22;;;;;;;7.88;3.80;;;13.70;99.90;;;;;;5034064;28;20452;-65
2022/04/30 09:00:48;;;;;;;9.63;4.43;;;13.90;99.90;;;;;;5032489;28;20362;-65
2022/04/30 09:03:19;;;;;;;10.98;3.80;;;14.60;99.90;;;;;;5031951;28;20160;-65
2022/04/30 09:05:45;;;;;;;14.10;4.30;;;15.10;99.90;;;;;;5033146;28;20749;-65
2022/04/30 09:08:11;;;;;;;8.43;4.18;;;15.20;99.90;;;;;;5037767;28;20107;-65
2022/04/30 09:10:37;;;;;;;8.35;3.92;;;15.50;99.90;;;;;;5039908;28;20402;-65
2022/04/30 09:13:12;;;;;;;10.55;3.92;;;15.70;99.90;;;;;;5044625;28;21998;-66
2022/04/30 09:15:47;;;;;;;10.15;4.22;;;15.80;99.90;;;;;;5043120;28;20048;-66
2022/04/30 09:18:14;;;;;;;9.18;4.38;;;15.50;99.90;;;;;;5035543;28;20049;-65
2022/04/30 09:20:47;;;;;;;10.05;4.10;;;15.20;99.90;;;;;;5046450;28;20086;-65
2022/04/30 09:23:33;;;;;;;9.38;3.70;;;14.90;99.90;;;;;;5026493;28;20509;-65
2022/04/30 09:26:03;;;;;;;7.40;3.80;;;14.70;99.90;;;;;;5032497;28;20504;-66
2022/04/30 09:28:34;;;;;;;9.23;3.90;;;14.60;99.90;;;;;;5030375;28;20045;-65
2022/04/30 09:31:08;;;;;;;7.88;3.95;;;14.60;99.90;;;;;;5031761;28;20053;-65
2022/04/30 09:33:36;;;;;;;7.45;4.38;;;14.50;99.90;;;;;;5027800;28;20272;-66
2022/04/30 09:38:52;;;;;;;9.20;3.97;;;14.10;99.90;;;;;;5031170;28;20041;-65
2022/04/30 09:41:26;;;;;;;6.93;4.28;;;13.80;99.90;;;;;;5038315;28;20049;-66
2022/04/30 09:44:06;;;;;;;9.10;3.90;;;13.50;99.90;;;;;;5028958;28;20045;-66
2022/04/30 09:46:37;;;;;;;10.05;4.38;;;13.30;99.90;;;;;;5040873;28;20037;-65
2022/04/30 09:54:40;;;;;;;8.75;4.50;;;12.80;99.90;;;;;;5027262;28;20045;-66
2022/04/30 09:57:09;;;;;;;9.70;4.60;;;12.70;99.90;;;;;;5028994;28;20033;-66
2022/04/30 09:59:37;;;;;;;9.00;4.53;;;12.50;99.90;;;;;;5031004;28;20041;-66
2022/04/30 10:02:10;;;;;;;9.70;4.88;;;12.30;99.90;;;;;;5028425;28;20032;-68
2022/04/30 10:04:36;;;;;;;10.85;4.88;;;12.20;99.90;;;;;;5029912;28;20516;-67
2022/04/30 10:07:04;;;;;;;10.18;4.47;;;12.10;99.90;;;;;;5028905;28;20059;-67
2022/04/30 10:09:35;;;;;;;13.15;4.95;;;12.00;99.90;;;;;;5022070;28;20045;-67
2022/04/30 10:12:16;;;;;;;10.95;4.63;;;12.00;99.90;;;;;;5026792;28;20158;-67
2022/04/30 10:15:08;;;;;;;12.43;4.75;;;11.90;99.90;;;;;;5027476;28;20060;-67
2022/04/30 10:17:41;;;;;;;10.88;4.78;;;11.90;99.90;;;;;;5024865;28;20067;-66
2022/04/30 10:20:18;;;;;;;10.82;4.95;;;11.80;99.90;;;;;;5018434;28;20148;-66
2022/04/30 10:22:59;;;;;;;9.65;4.90;;;11.80;99.90;;;;;;5029234;28;20042;-66
2022/04/30 10:25:35;;;;;;;15.15;4.90;;;11.70;99.90;;;;;;5004895;28;20936;-66
2022/04/30 10:28:05;;;;;;;10.55;4.28;;;11.80;99.90;;;;;;5019728;28;20748;-65
2022/04/30 10:30:33;;;;;;;12.75;5.07;;;11.70;99.90;;;;;;5023674;28;20045;-66
2022/04/30 10:33:02;;;;;;;7.95;4.40;;;11.60;99.90;;;;;;5021565;28;20056;-66
2022/04/30 10:35:32;;;;;;;13.50;4.93;;;11.60;99.90;;;;;;5023339;28;20037;-67
2022/04/30 10:38:15;;;;;;;9.52;4.45;;;11.50;99.90;;;;;;5028093;28;20068;-66
2022/04/30 10:40:49;;;;;;;9.93;4.75;;;11.40;99.90;;;;;;5027183;28;20049;-66
2022/04/30 10:43:16;;;;;;;13.50;4.70;;;11.40;99.90;;;;;;5029917;28;20085;-66
2022/04/30 10:45:41;;;;;;;9.90;5.15;;;11.40;99.90;;;;;;5019616;28;20396;-66
2022/04/30 10:48:07;;;;;;;12.57;4.78;;;11.30;99.90;;;;;;5032051;28;20422;-67
2022/04/30 10:50:36;;;;;;;10.13;4.30;;;11.30;99.90;;;;;;5011303;28;20381;-66
2022/04/30 10:53:05;;;;;;;13.18;5.07;;;11.40;99.90;;;;;;5035729;28;20041;-66
2022/04/30 10:55:31;;;;;;;12.07;5.20;;;11.20;99.90;;;;;;5027697;28;20071;-65
2022/04/30 10:57:57;;;;;;;11.93;5.60;;;11.20;99.90;;;;;;5031512;28;20529;-66
2022/04/30 11:00:22;;;;;;;11.40;4.80;;;11.20;99.90;;;;;;5030644;28;20049;-66
2022/04/30 11:02:49;;;;;;;12.52;4.65;;;11.20;99.90;;;;;;5037180;28;20315;-66
2022/04/30 11:05:22;;;;;;;8.80;5.00;;;11.10;99.90;;;;;;5040348;28;20053;-66
2022/04/30 11:07:48;;;;;;;9.50;4.82;;;11.10;99.90;;;;;;5033307;28;20081;-66
2022/04/30 11:10:14;;;;;;;13.68;4.88;;;11.10;99.90;;;;;;5031802;28;20045;-66
2022/04/30 11:12:40;;;;;;;13.18;5.13;;;11.00;99.90;;;;;;5030020;28;20044;-66
2022/04/30 11:15:06;;;;;;;11.35;5.32;;;11.00;99.90;;;;;;5038698;28;20567;-66
2022/04/30 11:17:42;;;;;;;11.60;5.38;;;10.90;99.90;;;;;;5032074;28;20148;-66
2022/04/30 11:20:09;;;;;;;12.27;5.57;;;10.90;99.90;;;;;;5031598;28;20106;-66
2022/04/30 11:22:34;;;;;;;12.00;6.90;;;10.80;99.90;;;;;;5039887;28;20498;-66
2022/04/30 11:25:00;;;;;;;10.02;5.80;;;10.80;99.90;;;;;;5039131;28;20080;-66
2022/04/30 11:27:31;;;;;;;15.80;6.15;;;10.70;99.90;;;;;;5039706;28;20045;-68
2022/04/30 11:29:57;;;;;;;12.80;5.60;;;10.80;99.90;;;;;;5035318;28;20440;-67
2022/04/30 11:32:27;;;;;;;12.45;5.13;;;10.80;99.90;;;;;;5038297;28;20106;-67
2022/04/30 11:35:10;;;;;;;12.98;5.68;;;10.70;99.90;;;;;;5039317;28;20129;-67
2022/04/30 11:37:38;;;;;;;14.02;6.13;;;10.70;99.90;;;;;;5032315;28;20080;-67
2022/04/30 11:40:04;;;;;;;12.10;5.35;;;10.70;99.90;;;;;;5032652;28;20440;-67
2022/04/30 11:42:30;;;;;;;13.88;6.25;;;10.70;99.90;;;;;;5034777;28;20125;-65
2022/04/30 11:44:56;;;;;;;10.68;5.20;;;10.70;99.90;;;;;;5032352;28;20677;-67
2022/04/30 11:47:22;;;;;;;15.95;5.68;;;10.70;99.90;;;;;;5026619;28;20444;-65
2022/04/30 11:49:48;;;;;;;11.70;5.93;;;10.70;99.90;;;;;;5030099;28;20117;-66
2022/04/30 11:52:14;;;;;;;12.75;5.10;;;10.80;99.90;;;;;;5027898;28;20039;-65
2022/04/30 11:54:41;;;;;;;8.82;5.03;;;10.80;99.90;;;;;;5030291;28;20390;-66
2022/04/30 11:57:14;;;;;;;14.00;5.43;;;11.10;99.90;;;;;;5036762;28;20041;-66
2022/04/30 11:59:41;;;;;;;16.20;5.25;;;10.80;99.90;;;;;;5032380;28;20115;-66
2022/04/30 12:02:08;;;;;;;13.18;5.30;;;11.10;99.90;;;;;;5035959;28;20052;-66
2022/04/30 12:04:36;;;;;;;16.13;5.30;;;10.80;99.90;;;;;;5030191;28;20056;-65
2022/04/30 12:07:05;;;;;;;10.20;5.68;;;10.80;99.90;;;;;;5035525;28;20053;-66
2022/04/30 12:09:37;;;;;;;10.65;5.57;;;11.20;99.90;;;;;;5029391;28;20045;-66
2022/04/30 12:12:21;;;;;;;12.57;5.55;;;10.80;99.90;;;;;;5031770;28;20033;-66
2022/04/30 12:14:52;;;;;;;16.85;5.68;;;10.80;99.90;;;;;;5031773;28;20489;-66
2022/04/30 12:17:18;;;;;;;;;;;10.80;99.90;;;;;;5036488;28;20037;-66
2022/04/30 12:24:40;;;;;;;12.65;5.20;;;10.80;99.90;;;;;;5029838;28;20291;-66
2022/04/30 12:25:36;;;;;;;11.70;5.05;;;10.80;99.90;;;;;;5033894;28;20045;-66
2022/04/30 12:28:02;;;;;;;12.30;5.82;;;10.90;99.90;;;;;;5038629;28;20060;-67
2022/04/30 12:30:28;;;;;;;12.15;5.82;;;10.80;99.90;;;;;;5035112;28;20045;-68
2022/04/30 12:33:04;;;;;;;11.10;5.55;;;10.90;99.90;;;;;;5033506;28;20049;-66
2022/04/30 12:35:32;;;;;;;11.02;4.85;;;10.80;99.90;;;;;;5035678;28;20053;-67
2022/04/30 12:38:06;;;;;;;10.45;5.45;;;10.80;99.90;;;;;;5036980;28;20077;-67
2022/04/30 12:40:36;;;;;;;11.63;5.55;;;10.80;99.90;;;;;;5037268;28;20056;-67
2022/04/30 12:43:03;;;;;;;16.65;6.20;;;10.70;99.90;;;;;;5038019;28;20569;-67
2022/04/30 12:45:29;;;;;;;13.98;5.55;;;10.70;99.90;;;;;;5033249;28;20049;-67
2022/04/30 12:47:55;;;;;;;12.25;6.03;;;10.70;99.90;;;;;;5036704;28;20091;-65
2022/04/30 12:50:21;;;;;;;11.20;5.45;;;10.80;99.90;;;;;;5039956;28;20068;-65
2022/04/30 12:52:47;;;;;;;11.55;5.60;;;10.70;99.90;;;;;;5036923;28;20052;-64
2022/04/30 12:55:14;;;;;;;14.85;5.80;;;10.70;99.90;;;;;;5036670;28;20048;-64
2022/04/30 12:57:40;;;;;;;10.55;5.03;;;10.70;99.90;;;;;;5040576;28;20165;-64
2022/04/30 13:00:10;;;;;;;11.45;5.07;;;10.90;99.90;;;;;;5039795;28;20369;-66
2022/04/30 13:02:38;;;;;;;12.07;5.68;;;10.60;99.90;;;;;;5039198;28;20037;-67
2022/04/30 13:05:07;;;;;;;10.13;4.50;;;10.60;99.90;;;;;;5039854;28;20639;-67
2022/04/30 13:07:33;;;;;;;15.45;5.18;;;10.60;99.90;;;;;;5038901;28;20041;-67
2022/04/30 13:15:47;;;;;;;13.30;5.50;;;10.70;99.90;;;;;;4959079;28;20520;-66
2022/04/30 13:18:13;;;;;;;11.35;4.82;;;10.70;99.90;;;;;;4997856;28;20077;-66
2022/04/30 13:20:39;;;;;;;16.50;5.60;;;10.70;99.90;;;;;;5038692;28;20048;-66
2022/04/30 13:23:05;;;;;;;14.38;5.70;;;10.70;99.90;;;;;;5042258;28;20414;-66
2022/04/30 13:25:31;;;;;;;11.35;5.70;;;10.70;99.90;;;;;;5041600;28;20055;-66
2022/04/30 13:27:57;;;;;;;12.43;6.13;;;10.70;99.90;;;;;;5043329;28;20049;-66
2022/04/30 13:30:24;;;;;;;13.30;5.60;;;10.80;99.90;;;;;;5041919;28;20211;-66